Time;durP1;ratioP1;P1;durP2;ratioP2;P2;SDS_P1;SDS_P2;PMS_P1;PMS_P2;Temp;Humidity;BMP_temperature;BMP_pressure;BME280_temperature;BME280_humidity;BME280_pressure;Samples;Min_cycle;Max_cycle;Signal;HPM_P1;HPM_P2
2020/12/16 00:00:21;;;;;;;;;;;22.70;39.40;;;;;;1505505;77;721;-72
2020/12/16 00:02:23;;;;;;;;;;;22.70;39.40;;;;;;1508642;77;1927;-71
2020/12/16 00:04:25;;;;;;;;;;;22.60;39.30;;;;;;1511780;77;740;-71
2020/12/16 00:06:27;;;;;;;;;;;22.60;39.30;;;;;;1509129;77;1114;-74
2020/12/16 00:08:29;;;;;;;;;;;22.60;39.30;;;;;;1510283;77;755;-74
2020/12/16 00:10:31;;;;;;;;;;;22.60;39.40;;;;;;1511023;77;759;-73
2020/12/16 00:12:33;;;;;;;;;;;22.70;39.50;;;;;;1509352;77;770;-72
2020/12/16 00:14:35;;;;;;;;;;;22.60;39.50;;;;;;1504990;77;820;-71
2020/12/16 00:16:36;;;;;;;;;;;22.60;39.50;;;;;;1505142;77;1094;-72
2020/12/16 00:18:38;;;;;;;;;;;22.60;39.50;;;;;;1512048;77;731;-71
2020/12/16 00:20:40;;;;;;;;;;;22.70;39.60;;;;;;1511774;77;814;-71
2020/12/16 00:22:42;;;;;;;;;;;22.70;39.60;;;;;;1506737;77;1972;-73
2020/12/16 00:24:44;;;;;;;;;;;22.70;39.60;;;;;;1508559;77;699;-73
2020/12/16 00:26:46;;;;;;;;;;;22.60;39.70;;;;;;1508053;77;761;-71
2020/12/16 00:28:48;;;;;;;;;;;22.70;39.80;;;;;;1509725;77;736;-71
2020/12/16 00:30:50;;;;;;;;;;;22.70;39.80;;;;;;1512735;77;803;-72
2020/12/16 00:32:51;;;;;;;;;;;22.70;39.90;;;;;;1513345;77;720;-71
2020/12/16 00:34:53;;;;;;;;;;;22.60;39.80;;;;;;1512630;77;1112;-71
2020/12/16 00:36:55;;;;;;;;;;;22.70;40.00;;;;;;1511837;77;674;-72
2020/12/16 00:38:57;;;;;;;;;;;22.70;39.90;;;;;;1514144;77;723;-73
2020/12/16 00:40:59;;;;;;;;;;;22.70;40.00;;;;;;1508877;77;771;-73
2020/12/16 00:43:01;;;;;;;;;;;22.70;40.00;;;;;;1512944;77;1945;-74
2020/12/16 00:45:04;;;;;;;;;;;22.70;40.00;;;;;;1506206;77;1115;-74
2020/12/16 00:47:06;;;;;;;;;;;22.70;40.00;;;;;;1509755;77;1057;-74
2020/12/16 00:49:08;;;;;;;;;;;22.60;40.00;;;;;;1507002;77;738;-74
2020/12/16 00:51:10;;;;;;;;;;;22.60;40.20;;;;;;1507088;77;750;-74
2020/12/16 00:53:12;;;;;;;;;;;22.60;40.00;;;;;;1535100;76;1231;-74
2020/12/16 00:55:13;;;;;;;;;;;22.70;40.10;;;;;;1508143;77;1127;-73
2020/12/16 00:57:15;;;;;;;;;;;22.70;40.00;;;;;;1510925;77;799;-74
2020/12/16 00:59:17;;;;;;;;;;;22.70;40.00;;;;;;1484994;79;1055;-73
2020/12/16 01:01:19;;;;;;;;;;;22.80;39.80;;;;;;1509296;77;743;-74
2020/12/16 01:03:21;;;;;;;;;;;22.80;39.90;;;;;;1506721;77;1910;-73
2020/12/16 01:05:23;;;;;;;;;;;22.80;39.90;;;;;;1508220;77;1160;-75
2020/12/16 01:07:25;;;;;;;;;;;22.80;39.90;;;;;;1517752;77;713;-74
2020/12/16 01:09:27;;;;;;;;;;;22.80;39.90;;;;;;1509623;77;751;-75
2020/12/16 01:11:29;;;;;;;;;;;22.80;39.90;;;;;;1511522;77;802;-74
2020/12/16 01:13:31;;;;;;;;;;;22.80;39.90;;;;;;1507019;77;725;-73
2020/12/16 01:15:33;;;;;;;;;;;22.80;39.90;;;;;;1509185;77;1141;-74
2020/12/16 01:17:36;;;;;;;;;;;22.80;39.90;;;;;;1509178;77;749;-73
2020/12/16 01:19:38;;;;;;;;;;;22.80;40.00;;;;;;1508597;77;776;-73
2020/12/16 01:21:40;;;;;;;;;;;22.80;40.00;;;;;;1509386;77;907;-73
2020/12/16 01:23:42;;;;;;;;;;;22.80;39.90;;;;;;1511159;77;1956;-74
2020/12/16 01:25:43;;;;;;;;;;;22.80;40.00;;;;;;1510435;77;1135;-74
2020/12/16 01:27:45;;;;;;;;;;;22.80;39.90;;;;;;1509820;77;744;-75
2020/12/16 01:29:47;;;;;;;;;;;22.80;39.90;;;;;;1536217;76;1128;-74
2020/12/16 01:31:49;;;;;;;;;;;22.80;39.90;;;;;;1506178;77;729;-75
2020/12/16 01:33:52;;;;;;;;;;;22.80;39.90;;;;;;1511093;77;732;-73
2020/12/16 01:35:54;;;;;;;;;;;22.80;39.90;;;;;;1506466;77;1147;-74
2020/12/16 01:37:56;;;;;;;;;;;22.80;39.90;;;;;;1511945;77;765;-74
2020/12/16 01:39:58;;;;;;;;;;;22.80;39.90;;;;;;1506671;77;650;-73
2020/12/16 01:42:00;;;;;;;;;;;22.80;39.90;;;;;;1504091;77;782;-75
2020/12/16 01:44:11;;;;;;;;;;;22.80;39.90;;;;;;1509059;77;1973;-75
2020/12/16 01:46:13;;;;;;;;;;;22.80;39.80;;;;;;1508722;77;1191;-74
2020/12/16 01:48:15;;;;;;;;;;;22.80;39.80;;;;;;1512167;77;779;-74
2020/12/16 01:50:17;;;;;;;;;;;22.80;39.80;;;;;;1507954;77;781;-74
2020/12/16 01:52:20;;;;;;;;;;;22.80;39.80;;;;;;1507980;77;775;-74
2020/12/16 01:54:22;;;;;;;;;;;22.80;39.90;;;;;;1508072;77;831;-73
2020/12/16 01:56:24;;;;;;;;;;;22.80;39.90;;;;;;1510918;77;1130;-74
2020/12/16 01:58:26;;;;;;;;;;;22.80;39.90;;;;;;1515453;77;780;-75
2020/12/16 02:00:28;;;;;;;;;;;22.80;39.90;;;;;;1509764;77;742;-74
2020/12/16 02:02:30;;;;;;;;;;;22.80;40.00;;;;;;1510352;77;750;-74
2020/12/16 02:04:38;;;;;;;;;;;22.80;39.90;;;;;;1508632;77;1938;-74
2020/12/16 02:06:37;;;;;;;;;;;22.80;39.90;;;;;;1507835;77;1251;-74
2020/12/16 02:08:39;;;;;;;;;;;22.80;39.90;;;;;;1515262;77;682;-74
2020/12/16 02:10:40;;;;;;;;;;;22.80;40.00;;;;;;1509597;77;717;-75
2020/12/16 02:12:42;;;;;;;;;;;22.80;40.00;;;;;;1512352;77;816;-74
2020/12/16 02:14:44;;;;;;;;;;;22.80;40.00;;;;;;1509896;77;700;-73
2020/12/16 02:16:46;;;;;;;;;;;22.80;40.10;;;;;;1510592;77;731;-73
2020/12/16 02:18:48;;;;;;;;;;;22.80;40.10;;;;;;1502881;77;791;-73
2020/12/16 02:20:50;;;;;;;;;;;22.80;40.10;;;;;;1510272;77;742;-74
2020/12/16 02:22:52;;;;;;;;;;;22.80;40.20;;;;;;1510491;77;1944;-74
2020/12/16 02:25:12;;;;;;;;;;;22.80;40.20;;;;;;1513530;77;1103;-74
2020/12/16 02:27:14;;;;;;;;;;;22.80;40.20;;;;;;1508416;77;721;-71
2020/12/16 02:29:15;;;;;;;;;;;22.80;40.20;;;;;;1506955;77;726;-74
2020/12/16 02:31:17;;;;;;;;;;;22.80;40.20;;;;;;1510085;77;746;-74
2020/12/16 02:33:19;;;;;;;;;;;22.80;40.30;;;;;;1508770;77;799;-76
2020/12/16 02:35:21;;;;;;;;;;;22.80;40.30;;;;;;1511628;77;1073;-77
2020/12/16 02:37:23;;;;;;;;;;;22.80;40.30;;;;;;1505550;77;691;-77
2020/12/16 02:39:25;;;;;;;;;;;22.80;40.30;;;;;;1518749;77;726;-77
2020/12/16 02:41:27;;;;;;;;;;;22.80;40.40;;;;;;1514558;77;693;-75
2020/12/16 02:43:29;;;;;;;;;;;22.80;40.30;;;;;;1506319;77;1917;-72
2020/12/16 02:45:31;;;;;;;;;;;22.80;40.40;;;;;;1518755;76;1188;-73
2020/12/16 02:47:33;;;;;;;;;;;22.80;40.30;;;;;;1501263;77;800;-74
2020/12/16 02:49:35;;;;;;;;;;;22.80;40.40;;;;;;1504980;77;638;-74
2020/12/16 02:51:37;;;;;;;;;;;22.80;40.40;;;;;;1497826;77;749;-75
2020/12/16 02:53:39;;;;;;;;;;;22.80;40.40;;;;;;1524885;77;730;-75
2020/12/16 02:55:40;;;;;;;;;;;22.80;40.30;;;;;;1517393;77;1132;-75
2020/12/16 02:57:42;;;;;;;;;;;22.80;40.30;;;;;;1517528;77;764;-75
2020/12/16 02:59:46;;;;;;;;;;;22.80;40.20;;;;;;1507311;77;1088;-74
2020/12/16 03:01:48;;;;;;;;;;;22.80;40.20;;;;;;1500711;77;1142;-74
2020/12/16 03:03:50;;;;;;;;;;;22.80;40.20;;;;;;1504694;77;1912;-74
2020/12/16 03:05:52;;;;;;;;;;;22.90;40.30;;;;;;1500463;77;1144;-75
2020/12/16 03:07:54;;;;;;;;;;;22.80;40.20;;;;;;1509360;77;743;-75
2020/12/16 03:09:56;;;;;;;;;;;22.80;40.20;;;;;;1509282;77;768;-75
2020/12/16 03:11:58;;;;;;;;;;;22.80;40.30;;;;;;1509006;77;724;-75
2020/12/16 03:14:00;;;;;;;;;;;22.80;40.20;;;;;;1512278;77;786;-75
2020/12/16 03:16:02;;;;;;;;;;;22.80;40.20;;;;;;1506065;74;2094;-76
2020/12/16 03:18:03;;;;;;;;;;;22.80;40.20;;;;;;1531208;76;619;-74
2020/12/16 03:20:05;;;;;;;;;;;22.80;40.20;;;;;;1535343;75;684;-73
2020/12/16 03:22:07;;;;;;;;;;;22.80;40.20;;;;;;1519006;76;688;-72
2020/12/16 03:24:09;;;;;;;;;;;22.80;40.20;;;;;;1519298;76;1934;-71
2020/12/16 03:26:11;;;;;;;;;;;22.80;40.30;;;;;;1520653;76;1196;-72
2020/12/16 03:28:13;;;;;;;;;;;22.70;40.20;;;;;;1518959;77;737;-72
2020/12/16 03:30:15;;;;;;;;;;;22.80;40.20;;;;;;1525330;77;687;-72
2020/12/16 03:32:16;;;;;;;;;;;22.70;40.20;;;;;;1521180;77;760;-71
2020/12/16 03:34:18;;;;;;;;;;;22.80;40.30;;;;;;1512710;77;736;-73
2020/12/16 03:36:20;;;;;;;;;;;22.80;40.30;;;;;;1514439;77;1158;-75
2020/12/16 03:38:22;;;;;;;;;;;22.80;40.40;;;;;;1521332;77;710;-76
2020/12/16 03:40:24;;;;;;;;;;;22.80;40.40;;;;;;1513884;77;672;-72
2020/12/16 03:42:26;;;;;;;;;;;22.70;40.50;;;;;;1513079;77;700;-72
2020/12/16 03:44:28;;;;;;;;;;;22.80;40.50;;;;;;1510564;77;1943;-71
2020/12/16 03:46:30;;;;;;;;;;;22.70;40.70;;;;;;1511137;77;1156;-72
2020/12/16 03:48:31;;;;;;;;;;;22.80;40.80;;;;;;1525426;77;712;-71
2020/12/16 03:50:33;;;;;;;;;;;22.70;41.10;;;;;;1514567;77;703;-72
2020/12/16 03:52:35;;;;;;;;;;;22.70;41.10;;;;;;1510895;77;718;-71
2020/12/16 03:54:37;;;;;;;;;;;22.70;41.00;;;;;;1514735;77;691;-71
2020/12/16 03:56:39;;;;;;;;;;;22.70;41.10;;;;;;1517784;76;1192;-72
2020/12/16 03:58:42;;;;;;;;;;;22.70;41.10;;;;;;1514057;77;670;-72
2020/12/16 04:00:44;;;;;;;;;;;22.70;41.20;;;;;;1511908;77;1027;-74
2020/12/16 04:02:46;;;;;;;;;;;22.80;41.10;;;;;;1520182;75;704;-75
2020/12/16 04:04:48;;;;;;;;;;;22.80;41.20;;;;;;1514759;77;1937;-74
2020/12/16 04:06:51;;;;;;;;;;;22.80;41.20;;;;;;1521954;77;1159;-71
2020/12/16 04:08:54;;;;;;;;;;;22.70;41.30;;;;;;1514506;76;1093;-76
2020/12/16 04:10:56;;;;;;;;;;;22.80;41.30;;;;;;1512948;77;760;-71
2020/12/16 04:12:58;;;;;;;;;;;22.80;41.30;;;;;;1512063;77;718;-71
2020/12/16 04:14:59;;;;;;;;;;;22.70;41.60;;;;;;1516601;77;707;-71
2020/12/16 04:17:01;;;;;;;;;;;22.70;41.80;;;;;;1519164;77;1106;-71
2020/12/16 04:19:03;;;;;;;;;;;22.70;41.80;;;;;;1514303;77;726;-72
2020/12/16 04:21:06;;;;;;;;;;;22.70;41.90;;;;;;1508850;77;704;-73
2020/12/16 04:23:08;;;;;;;;;;;22.70;42.00;;;;;;1519813;77;673;-70
2020/12/16 04:25:09;;;;;;;;;;;22.60;42.00;;;;;;1517313;76;1949;-72
2020/12/16 04:27:11;;;;;;;;;;;22.70;42.10;;;;;;1523134;77;1165;-72
2020/12/16 04:29:13;;;;;;;;;;;22.60;42.00;;;;;;1519941;77;761;-72
2020/12/16 04:31:15;;;;;;;;;;;22.60;42.00;;;;;;1525704;77;638;-70
2020/12/16 04:33:17;;;;;;;;;;;22.70;42.10;;;;;;1515499;77;715;-70
2020/12/16 04:35:19;;;;;;;;;;;22.60;42.00;;;;;;1522474;77;1107;-70
2020/12/16 04:37:21;;;;;;;;;;;22.70;42.10;;;;;;1528981;77;696;-75
2020/12/16 04:39:22;;;;;;;;;;;22.70;42.10;;;;;;1512918;77;650;-71
2020/12/16 04:41:24;;;;;;;;;;;22.70;42.00;;;;;;1529348;76;735;-72
2020/12/16 04:43:26;;;;;;;;;;;22.70;42.00;;;;;;1523880;76;660;-73
2020/12/16 04:45:28;;;;;;;;;;;22.70;42.00;;;;;;1516552;77;1953;-70
2020/12/16 04:47:30;;;;;;;;;;;22.70;42.00;;;;;;1511153;77;751;-72
2020/12/16 04:49:32;;;;;;;;;;;22.70;42.00;;;;;;1511078;77;740;-71
2020/12/16 04:51:34;;;;;;;;;;;22.80;41.90;;;;;;1514997;77;765;-71
2020/12/16 04:53:36;;;;;;;;;;;22.70;41.90;;;;;;1514509;77;744;-71
2020/12/16 04:55:38;;;;;;;;;;;22.70;41.90;;;;;;1526617;77;1148;-71
2020/12/16 04:57:40;;;;;;;;;;;22.80;41.90;;;;;;1528359;76;751;-73
2020/12/16 04:59:42;;;;;;;;;;;22.70;41.90;;;;;;1513828;77;664;-70
2020/12/16 05:01:43;;;;;;;;;;;22.80;41.80;;;;;;1520436;77;757;-71
2020/12/16 05:03:45;;;;;;;;;;;22.80;41.80;;;;;;1527755;77;719;-70
2020/12/16 05:05:47;;;;;;;;;;;22.80;41.80;;;;;;1519171;77;1956;-75
2020/12/16 05:07:49;;;;;;;;;;;22.80;41.70;;;;;;1513345;77;638;-71
2020/12/16 05:09:51;;;;;;;;;;;22.80;41.70;;;;;;1514016;77;698;-71
2020/12/16 05:11:53;;;;;;;;;;;22.80;41.70;;;;;;1519053;77;710;-71
2020/12/16 05:13:56;;;;;;;;;;;22.90;41.80;;;;;;1518006;77;693;-72
2020/12/16 05:16:00;;;;;;;;;;;22.80;41.60;;;;;;1516659;76;1155;-73
2020/12/16 05:18:05;;;;;;;;;;;22.80;41.70;;;;;;1517457;77;805;-72
2020/12/16 05:20:08;;;;;;;;;;;22.80;41.60;;;;;;1514746;77;687;-72
2020/12/16 05:22:11;;;;;;;;;;;22.80;41.70;;;;;;1519861;77;708;-72
2020/12/16 05:24:13;;;;;;;;;;;22.80;41.80;;;;;;1515905;77;1943;-72
2020/12/16 05:26:14;;;;;;;;;;;22.80;41.80;;;;;;1509940;77;1167;-74
2020/12/16 05:28:18;;;;;;;;;;;22.80;41.90;;;;;;1523620;77;763;-73
2020/12/16 05:30:20;;;;;;;;;;;22.80;41.90;;;;;;1517408;76;1050;-72
2020/12/16 05:32:22;;;;;;;;;;;22.80;41.90;;;;;;1521488;77;722;-72
2020/12/16 05:34:28;;;;;;;;;;;22.80;41.90;;;;;;1527865;77;732;-71
2020/12/16 05:36:30;;;;;;;;;;;22.80;42.00;;;;;;1515399;77;1187;-71
2020/12/16 05:38:32;;;;;;;;;;;22.80;42.00;;;;;;1514551;77;705;-70
2020/12/16 05:40:35;;;;;;;;;;;22.80;41.90;;;;;;1515313;77;701;-71
2020/12/16 05:42:38;;;;;;;;;;;22.80;41.80;;;;;;1527063;77;1137;-70
2020/12/16 05:44:39;;;;;;;;;;;22.80;41.80;;;;;;1512866;77;1927;-71
2020/12/16 05:46:41;;;;;;;;;;;22.80;41.80;;;;;;1513737;77;1175;-73
2020/12/16 05:48:43;;;;;;;;;;;22.90;41.80;;;;;;1519682;76;662;-72
2020/12/16 05:50:52;;;;;;;;;;;22.90;41.80;;;;;;1515061;77;702;-72
2020/12/16 05:52:55;;;;;;;;;;;22.90;41.70;;;;;;1525706;77;619;-73
2020/12/16 05:54:57;;;;;;;;;;;22.90;41.70;;;;;;1516931;76;1137;-75
2020/12/16 05:57:20;;;;;;;;;;;22.90;41.70;;;;;;1526961;77;1150;-73
2020/12/16 05:59:22;;;;;;;;;;;22.90;41.70;;;;;;1514994;77;684;-74
2020/12/16 06:01:23;;;;;;;;;;;22.90;41.60;;;;;;1526059;77;673;-74
2020/12/16 06:03:26;;;;;;;;;;;22.90;41.60;;;;;;1540804;76;1121;-75
2020/12/16 06:05:28;;;;;;;;;;;22.90;41.60;;;;;;1492549;78;1945;-74
2020/12/16 06:07:31;;;;;;;;;;;22.90;41.60;;;;;;1519918;77;721;-72
2020/12/16 06:09:32;;;;;;;;;;;23.00;41.50;;;;;;1526071;77;715;-72
2020/12/16 06:11:34;;;;;;;;;;;22.90;41.50;;;;;;1518766;77;763;-72
2020/12/16 06:13:36;;;;;;;;;;;22.90;41.60;;;;;;1501654;77;691;-72
2020/12/16 06:15:40;;;;;;;;;;;22.90;41.50;;;;;;1513909;77;1144;-72
2020/12/16 06:17:43;;;;;;;;;;;22.90;41.50;;;;;;1528090;77;1108;-73
2020/12/16 06:19:45;;;;;;;;;;;22.90;41.50;;;;;;1518222;76;1053;-75
2020/12/16 06:21:47;;;;;;;;;;;22.90;41.50;;;;;;1521992;77;827;-73
2020/12/16 06:23:49;;;;;;;;;;;23.00;41.50;;;;;;1514307;77;704;-72
2020/12/16 06:25:52;;;;;;;;;;;23.00;41.60;;;;;;1514782;77;1933;-73
2020/12/16 06:27:54;;;;;;;;;;;22.90;41.70;;;;;;1516139;76;720;-73
2020/12/16 06:29:56;;;;;;;;;;;22.90;41.70;;;;;;1516447;77;657;-73
2020/12/16 06:32:00;;;;;;;;;;;22.90;41.70;;;;;;1517486;77;662;-74
2020/12/16 06:34:03;;;;;;;;;;;22.90;41.70;;;;;;1520078;77;979;-74
2020/12/16 06:36:07;;;;;;;;;;;22.90;41.60;;;;;;1517104;75;1125;-72
2020/12/16 06:38:21;;;;;;;;;;;22.90;41.60;;;;;;1530523;75;807;-74
2020/12/16 06:40:42;;;;;;;;;;;23.00;41.60;;;;;;1513832;77;704;-73
2020/12/16 06:42:45;;;;;;;;;;;22.90;41.60;;;;;;1517520;77;766;-74
2020/12/16 06:44:49;;;;;;;;;;;22.90;41.70;;;;;;1520109;77;1907;-74
2020/12/16 06:46:52;;;;;;;;;;;22.90;41.70;;;;;;1513202;77;1119;-75
2020/12/16 06:48:54;;;;;;;;;;;22.90;41.70;;;;;;1521448;76;696;-76
2020/12/16 06:51:15;;;;;;;;;;;22.90;41.70;;;;;;1517807;76;779;-77
2020/12/16 06:53:21;;;;;;;;;;;22.90;41.70;;;;;;1512393;77;645;-75
2020/12/16 06:55:23;;;;;;;;;;;22.90;41.60;;;;;;1514694;77;1249;-75
2020/12/16 06:57:29;;;;;;;;;;;22.90;41.80;;;;;;1510899;77;604;-74
2020/12/16 06:59:44;;;;;;;;;;;23.00;41.80;;;;;;1510186;77;683;-75
2020/12/16 07:01:46;;;;;;;;;;;22.90;41.90;;;;;;1509584;77;742;-72
2020/12/16 07:03:47;;;;;;;;;;;22.90;41.90;;;;;;1489231;78;1220;-72
2020/12/16 07:05:49;;;;;;;;;;;23.00;41.70;;;;;;1516957;77;1942;-73
2020/12/16 07:07:57;;;;;;;;;;;22.90;41.80;;;;;;1516869;77;734;-72
2020/12/16 07:09:59;;;;;;;;;;;23.00;41.70;;;;;;1517805;77;643;-73
2020/12/16 07:12:01;;;;;;;;;;;23.00;41.60;;;;;;1520048;77;687;-74
2020/12/16 07:14:13;;;;;;;;;;;23.00;41.60;;;;;;1518155;77;651;-76
2020/12/16 07:16:13;;;;;;;;;;;23.00;41.50;;;;;;1522191;77;1142;-76
2020/12/16 07:18:31;;;;;;;;;;;23.00;41.50;;;;;;1519041;77;768;-76
2020/12/16 07:20:33;;;;;;;;;;;23.00;41.50;;;;;;1517603;77;743;-72
2020/12/16 07:22:35;;;;;;;;;;;23.00;41.50;;;;;;1517424;77;835;-73
2020/12/16 07:24:37;;;;;;;;;;;23.00;41.50;;;;;;1517698;77;734;-74
2020/12/16 07:26:46;;;;;;;;;;;23.10;41.60;;;;;;1521311;77;1170;-72
2020/12/16 07:28:48;;;;;;;;;;;23.10;41.50;;;;;;1514159;77;815;-71
2020/12/16 07:30:50;;;;;;;;;;;23.10;41.50;;;;;;1519469;77;731;-72
2020/12/16 07:32:53;;;;;;;;;;;23.10;41.50;;;;;;1520957;77;747;-71
2020/12/16 07:34:58;;;;;;;;;;;23.10;41.50;;;;;;1514137;77;694;-73
2020/12/16 07:37:02;;;;;;;;;;;23.10;41.50;;;;;;1523761;77;1190;-69
2020/12/16 07:39:04;;;;;;;;;;;23.00;41.50;;;;;;1517592;77;1041;-72
2020/12/16 07:41:05;;;;;;;;;;;23.10;41.60;;;;;;1518432;77;731;-74
2020/12/16 07:43:12;;;;;;;;;;;23.00;41.50;;;;;;1516620;76;729;-74
2020/12/16 07:45:14;;;;;;;;;;;23.10;41.80;;;;;;1517570;77;1926;-72
2020/12/16 07:47:17;;;;;;;;;;;23.00;41.70;;;;;;1539716;76;875;-72
2020/12/16 07:49:20;;;;;;;;;;;23.00;41.80;;;;;;1486745;78;721;-71
2020/12/16 07:51:22;;;;;;;;;;;22.90;41.80;;;;;;1489757;78;767;-73
2020/12/16 07:53:24;;;;;;;;;;;23.00;41.80;;;;;;1490693;78;763;-73
2020/12/16 07:55:26;;;;;;;;;;;23.00;41.80;;;;;;1487502;78;1145;-71
2020/12/16 07:57:31;;;;;;;;;;;22.90;41.80;;;;;;1488407;78;709;-72
2020/12/16 07:59:36;;;;;;;;;;;23.00;41.80;;;;;;1490009;78;715;-72
2020/12/16 08:01:38;;;;;;;;;;;23.00;41.80;;;;;;1485662;78;968;-73
2020/12/16 08:03:40;;;;;;;;;;;23.00;41.90;;;;;;1493256;78;720;-73
2020/12/16 08:05:42;;;;;;;;;;;23.00;41.80;;;;;;1493036;78;1942;-75
2020/12/16 08:07:44;;;;;;;;;;;23.00;41.80;;;;;;1497123;77;933;-74
2020/12/16 08:09:57;;;;;;;;;;;23.00;41.90;;;;;;1500484;77;657;-75
2020/12/16 08:11:59;;;;;;;;;;;23.00;41.80;;;;;;1491452;78;926;-70
2020/12/16 08:14:07;;;;;;;;;;;23.00;41.80;;;;;;1491003;78;688;-69
2020/12/16 08:16:09;;;;;;;;;;;23.00;41.60;;;;;;1500275;78;1187;-71
2020/12/16 08:18:11;;;;;;;;;;;22.90;41.50;;;;;;1495835;77;719;-70
2020/12/16 08:20:14;;;;;;;;;;;22.90;41.30;;;;;;1494607;78;749;-72
2020/12/16 08:22:16;;;;;;;;;;;23.00;41.20;;;;;;1492123;78;1691;-72
2020/12/16 08:24:18;;;;;;;;;;;22.90;41.30;;;;;;1496548;78;735;-73
2020/12/16 08:26:21;;;;;;;;;;;22.90;41.20;;;;;;1504498;78;1950;-74
2020/12/16 08:28:27;;;;;;;;;;;23.00;41.30;;;;;;1491199;77;674;-73
2020/12/16 08:30:29;;;;;;;;;;;22.90;41.30;;;;;;1491466;78;799;-73
2020/12/16 08:32:30;;;;;;;;;;;23.00;41.20;;;;;;1500957;78;681;-74
2020/12/16 08:34:33;;;;;;;;;;;23.00;41.00;;;;;;1488057;78;765;-75
2020/12/16 08:36:35;;;;;;;;;;;23.10;40.90;;;;;;1506007;78;1176;-73
2020/12/16 08:38:37;;;;;;;;;;;23.00;40.70;;;;;;1488023;78;733;-74
2020/12/16 08:40:40;;;;;;;;;;;23.00;40.70;;;;;;1489555;78;691;-74
2020/12/16 08:42:42;;;;;;;;;;;23.10;40.70;;;;;;1496661;78;654;-73
2020/12/16 08:44:43;;;;;;;;;;;23.00;40.50;;;;;;1491061;78;764;-73
2020/12/16 08:46:45;;;;;;;;;;;23.00;40.50;;;;;;1489309;78;1947;-71
2020/12/16 08:49:00;;;;;;;;;;;23.00;40.50;;;;;;1508414;78;682;-72
2020/12/16 08:51:03;;;;;;;;;;;23.00;40.30;;;;;;1465754;80;735;-71
2020/12/16 08:53:05;;;;;;;;;;;23.00;40.50;;;;;;1504186;77;807;-72
2020/12/16 08:55:11;;;;;;;;;;;23.00;40.50;;;;;;1513345;77;732;-74
2020/12/16 08:57:13;;;;;;;;;;;23.00;40.50;;;;;;1525743;76;1138;-72
2020/12/16 08:59:16;;;;;;;;;;;23.20;40.50;;;;;;1519802;77;773;-70
2020/12/16 09:01:20;;;;;;;;;;;23.00;39.40;;;;;;1529956;76;700;-71
2020/12/16 09:03:22;;;;;;;;;;;23.00;38.40;;;;;;1524431;77;1837;-69
2020/12/16 09:05:23;;;;;;;;;;;23.00;37.90;;;;;;1518626;77;1930;-73
2020/12/16 09:07:26;;;;;;;;;;;23.00;37.60;;;;;;1515777;77;674;-73
2020/12/16 09:09:28;;;;;;;;;;;23.00;37.30;;;;;;1525237;76;679;-71
2020/12/16 09:11:30;;;;;;;;;;;22.90;37.70;;;;;;1523329;77;785;-70
2020/12/16 09:13:32;;;;;;;;;;;22.80;37.90;;;;;;1525987;77;760;-71
2020/12/16 09:15:37;;;;;;;;;;;22.80;38.00;;;;;;1515995;77;1102;-70
2020/12/16 09:17:39;;;;;;;;;;;22.80;38.10;;;;;;1515569;77;776;-70
2020/12/16 09:19:41;;;;;;;;;;;22.80;38.20;;;;;;1522221;76;797;-70
2020/12/16 09:21:42;;;;;;;;;;;22.70;38.30;;;;;;1520097;76;696;-71
2020/12/16 09:23:44;;;;;;;;;;;22.80;38.30;;;;;;1513251;77;725;-70
2020/12/16 09:25:51;;;;;;;;;;;22.80;38.40;;;;;;1533737;77;1947;-72
2020/12/16 09:27:53;;;;;;;;;;;22.70;38.30;;;;;;1515485;77;684;-71
2020/12/16 09:29:55;;;;;;;;;;;22.70;38.40;;;;;;1526113;77;735;-72
2020/12/16 09:32:17;;;;;;;;;;;22.70;38.50;;;;;;1540079;76;735;-71
2020/12/16 09:34:19;;;;;;;;;;;22.80;38.60;;;;;;1516468;77;718;-71
2020/12/16 09:36:25;;;;;;;;;;;22.80;38.50;;;;;;1533181;76;1190;-70
2020/12/16 09:38:27;;;;;;;;;;;22.80;38.60;;;;;;1515703;76;1084;-70
2020/12/16 09:40:31;;;;;;;;;;;22.80;38.60;;;;;;1511775;77;820;-69
2020/12/16 09:42:33;;;;;;;;;;;22.70;38.60;;;;;;1533454;77;1139;-70
2020/12/16 09:44:34;;;;;;;;;;;22.80;38.60;;;;;;1513453;77;732;-70
2020/12/16 09:46:36;;;;;;;;;;;22.80;38.60;;;;;;1518442;76;1953;-69
2020/12/16 09:48:38;;;;;;;;;;;22.80;38.60;;;;;;1514093;77;690;-70
2020/12/16 09:50:42;;;;;;;;;;;22.80;38.60;;;;;;1514069;77;660;-71
2020/12/16 09:52:44;;;;;;;;;;;22.80;38.60;;;;;;1529524;77;748;-71
2020/12/16 09:54:46;;;;;;;;;;;22.80;38.60;;;;;;1525445;77;678;-71
2020/12/16 09:56:48;;;;;;;;;;;22.80;38.60;;;;;;1524656;77;1119;-71
2020/12/16 09:58:50;;;;;;;;;;;22.80;38.60;;;;;;1521586;77;737;-71
2020/12/16 10:00:52;;;;;;;;;;;22.80;38.70;;;;;;1517486;77;693;-70
2020/12/16 10:02:58;;;;;;;;;;;22.80;38.60;;;;;;1532387;77;685;-72
2020/12/16 10:05:00;;;;;;;;;;;22.90;38.70;;;;;;1515193;74;1061;-71
2020/12/16 10:07:02;;;;;;;;;;;22.80;38.60;;;;;;1520119;76;1941;-71
2020/12/16 10:09:04;;;;;;;;;;;22.80;38.60;;;;;;1521761;77;753;-70
2020/12/16 10:11:07;;;;;;;;;;;22.80;38.60;;;;;;1520640;76;742;-70
2020/12/16 10:13:09;;;;;;;;;;;22.80;38.60;;;;;;1519676;77;1182;-73
2020/12/16 10:15:11;;;;;;;;;;;22.90;38.90;;;;;;1520688;77;719;-74
2020/12/16 10:17:13;;;;;;;;;;;22.80;38.70;;;;;;1518231;77;1079;-70
2020/12/16 10:19:20;;;;;;;;;;;22.80;39.00;;;;;;1522168;75;680;-72
2020/12/16 10:21:19;;;;;;;;;;;22.80;39.10;;;;;;1523631;77;1359;-71
2020/12/16 10:23:21;;;;;;;;;;;22.80;39.10;;;;;;1521457;77;665;-71
2020/12/16 10:25:23;;;;;;;;;;;22.80;38.90;;;;;;1514419;76;1165;-70
2020/12/16 10:27:28;;;;;;;;;;;22.90;39.00;;;;;;1512872;77;1927;-71
2020/12/16 10:29:28;;;;;;;;;;;22.80;38.70;;;;;;1524977;77;1704;-71
2020/12/16 10:31:30;;;;;;;;;;;22.90;38.90;;;;;;1517659;77;762;-71
2020/12/16 10:33:32;;;;;;;;;;;22.80;38.80;;;;;;1519682;77;898;-70
2020/12/16 10:35:34;;;;;;;;;;;22.90;38.80;;;;;;1507783;77;1172;-70
2020/12/16 10:37:40;;;;;;;;;;;22.90;38.80;;;;;;1515359;77;719;-71
2020/12/16 10:39:39;;;;;;;;;;;22.80;38.70;;;;;;1519853;76;1606;-71
2020/12/16 10:41:43;;;;;;;;;;;22.90;38.90;;;;;;1527193;77;743;-71
2020/12/16 10:43:44;;;;;;;;;;;22.80;38.70;;;;;;1515586;77;688;-70
2020/12/16 10:45:46;;;;;;;;;;;22.80;38.80;;;;;;1528803;76;1137;-70
2020/12/16 10:47:48;;;;;;;;;;;22.90;38.90;;;;;;1522184;77;1938;-72
2020/12/16 10:49:50;;;;;;;;;;;22.90;38.80;;;;;;1534280;76;715;-70
2020/12/16 10:51:52;;;;;;;;;;;22.80;38.60;;;;;;1520679;77;795;-70
2020/12/16 10:53:54;;;;;;;;;;;22.90;38.80;;;;;;1513694;77;673;-70
2020/12/16 10:55:56;;;;;;;;;;;22.90;38.80;;;;;;1514350;77;1132;-70
2020/12/16 10:57:58;;;;;;;;;;;22.80;38.60;;;;;;1516795;77;682;-71
2020/12/16 11:00:00;;;;;;;;;;;22.90;38.80;;;;;;1531177;77;694;-70
2020/12/16 11:02:01;;;;;;;;;;;22.80;38.60;;;;;;1528949;77;704;-71
2020/12/16 11:04:07;;;;;;;;;;;22.80;38.60;;;;;;1511034;77;681;-71
2020/12/16 11:06:09;;;;;;;;;;;22.90;38.80;;;;;;1529352;75;1929;-71
2020/12/16 11:08:10;;;;;;;;;;;22.80;38.60;;;;;;1503744;77;723;-70
2020/12/16 11:10:12;;;;;;;;;;;22.80;38.60;;;;;;1518680;77;947;-70
2020/12/16 11:12:14;;;;;;;;;;;22.80;38.70;;;;;;1516685;77;587;-70
2020/12/16 11:14:16;;;;;;;;;;;22.80;38.60;;;;;;1519149;77;735;-72
2020/12/16 11:16:18;;;;;;;;;;;22.80;38.60;;;;;;1524586;77;1179;-71
2020/12/16 11:18:21;;;;;;;;;;;22.90;38.70;;;;;;1515562;77;642;-71
2020/12/16 11:20:23;;;;;;;;;;;22.80;38.60;;;;;;1515838;77;724;-71
2020/12/16 11:22:25;;;;;;;;;;;22.80;38.60;;;;;;1503995;77;1070;-71
2020/12/16 11:24:27;;;;;;;;;;;22.80;38.60;;;;;;1517340;77;673;-71
2020/12/16 11:26:29;;;;;;;;;;;22.90;38.60;;;;;;1533108;75;1923;-72
2020/12/16 11:28:31;;;;;;;;;;;22.80;38.60;;;;;;1522315;77;775;-74
2020/12/16 11:30:33;;;;;;;;;;;22.80;38.50;;;;;;1517410;77;782;-72
2020/12/16 11:32:35;;;;;;;;;;;22.80;38.50;;;;;;1505118;77;672;-71
2020/12/16 11:34:36;;;;;;;;;;;22.70;38.50;;;;;;1513527;77;1012;-70
2020/12/16 11:36:39;;;;;;;;;;;22.80;38.60;;;;;;1516075;77;1194;-73
2020/12/16 11:38:40;;;;;;;;;;;22.80;38.60;;;;;;1521504;77;719;-72
2020/12/16 11:40:44;;;;;;;;;;;22.70;38.50;;;;;;1512740;77;690;-72
2020/12/16 11:42:46;;;;;;;;;;;22.70;38.60;;;;;;1514493;77;675;-72
2020/12/16 11:44:48;;;;;;;;;;;22.80;38.60;;;;;;1524110;77;729;-71
2020/12/16 11:46:50;;;;;;;;;;;22.80;38.50;;;;;;1520190;77;1938;-71
2020/12/16 11:48:52;;;;;;;;;;;22.80;38.60;;;;;;1516886;77;783;-72
2020/12/16 11:50:54;;;;;;;;;;;22.80;38.60;;;;;;1513851;77;751;-72
2020/12/16 11:52:56;;;;;;;;;;;22.80;38.60;;;;;;1519185;77;781;-72
2020/12/16 11:54:57;;;;;;;;;;;22.80;38.60;;;;;;1516491;77;629;-72
2020/12/16 11:56:59;;;;;;;;;;;22.80;38.50;;;;;;1515907;77;1130;-72
2020/12/16 11:59:01;;;;;;;;;;;22.80;38.40;;;;;;1517880;77;970;-72
2020/12/16 12:01:03;;;;;;;;;;;22.80;38.40;;;;;;1510804;77;813;-70
2020/12/16 12:03:05;;;;;;;;;;;22.80;38.50;;;;;;1517423;77;704;-71
2020/12/16 12:05:07;;;;;;;;;;;22.80;38.50;;;;;;1513867;77;726;-73
2020/12/16 12:07:09;;;;;;;;;;;22.80;38.50;;;;;;1514199;77;1929;-72
2020/12/16 12:09:11;;;;;;;;;;;22.80;38.50;;;;;;1512154;77;671;-72
2020/12/16 12:11:13;;;;;;;;;;;22.80;38.40;;;;;;1514275;77;1021;-74